Time;durP1;ratioP1;P1;durP2;ratioP2;P2;SDS_P1;SDS_P2;PMS_P1;PMS_P2;Temp;Humidity;BMP_temperature;BMP_pressure;BME280_temperature;BME280_humidity;BME280_pressure;Samples;Min_cycle;Max_cycle;Signal;HPM_P1;HPM_P2
2022/06/01 00:00:52;;;;;;;2.03;1.83;;;;;;;;;;5072559;28;20391;-81
2022/06/01 00:03:18;;;;;;;2.30;2.10;;;;;;;;;;5072416;28;20378;-81
2022/06/01 00:05:44;;;;;;;2.30;2.10;;;;;;;;;;5066800;28;20748;-81
2022/06/01 00:08:10;;;;;;;2.30;2.10;;;;;;;;;;5066578;28;20389;-81
2022/06/01 00:10:36;;;;;;;2.55;2.00;;;;;;;;;;5057082;28;20380;-81
2022/06/01 00:13:03;;;;;;;2.53;2.00;;;;;;;;;;5072086;28;20404;-81
2022/06/01 00:15:30;;;;;;;2.30;2.10;;;;;;;;;;5071531;28;20390;-81
2022/06/01 00:17:57;;;;;;;3.95;2.22;;;;;;;;;;5053970;28;20388;-82
2022/06/01 00:20:23;;;;;;;4.20;2.35;;;;;;;;;;5072286;28;20714;-81
2022/06/01 00:22:49;;;;;;;3.50;2.30;;;;;;;;;;5072415;28;20465;-81
2022/06/01 00:25:16;;;;;;;2.87;2.40;;;;;;;;;;5072372;28;20487;-81
2022/06/01 00:27:42;;;;;;;2.50;2.15;;;;;;;;;;5071958;28;20768;-81
2022/06/01 00:30:10;;;;;;;3.38;2.63;;;;;;;;;;5059504;28;20378;-81
2022/06/01 00:32:36;;;;;;;4.30;2.60;;;;;;;;;;5069796;28;20429;-81
2022/06/01 00:35:03;;;;;;;2.50;2.30;;;;;;;;;;5072176;28;20384;-81
2022/06/01 00:37:29;;;;;;;3.92;2.30;;;;;;;;;;5072192;28;20462;-81
2022/06/01 00:39:55;;;;;;;3.00;2.40;;;;;;;;;;5054019;28;20411;-81
2022/06/01 00:42:23;;;;;;;3.78;2.53;;;;;;;;;;5061275;28;20380;-81
2022/06/01 00:44:49;;;;;;;2.78;2.30;;;;;;;;;;5045258;28;20383;-81
2022/06/01 00:47:16;;;;;;;2.37;2.13;;;;;;;;;;5072394;28;20505;-81
2022/06/01 00:49:53;;;;;;;2.70;2.50;;;;;;;;;;5072003;28;20386;-81
2022/06/01 00:52:35;;;;;;;2.30;2.10;;;;;;;;;;5071942;28;20384;-81
2022/06/01 00:55:03;;;;;;;2.42;2.22;;;;;;;;;;5057808;28;20803;-81
2022/06/01 00:57:30;;;;;;;2.33;2.10;;;;;;;;;;5071963;28;20861;-81
2022/06/01 00:59:57;;;;;;;2.45;2.25;;;;;;;;;;5071633;28;20412;-81
2022/06/01 01:02:23;;;;;;;2.70;2.50;;;;;;;;;;5072126;28;20725;-81
2022/06/01 01:04:49;;;;;;;3.30;3.00;;;;;;;;;;5071891;28;20403;-81
2022/06/01 01:07:15;;;;;;;2.97;2.78;;;;;;;;;;5071814;28;20714;-81
2022/06/01 01:09:41;;;;;;;2.80;2.60;;;;;;;;;;5071984;28;20441;-81
2022/06/01 01:12:09;;;;;;;2.70;2.50;;;;;;;;;;5071667;28;20426;-81
2022/06/01 01:14:38;;;;;;;3.40;2.60;;;;;;;;;;5054091;28;20946;-81
2022/06/01 01:17:05;;;;;;;2.43;2.10;;;;;;;;;;5071768;28;20517;-81
2022/06/01 01:19:36;;;;;;;2.42;2.15;;;;;;;;;;5071613;28;20414;-81
2022/06/01 01:22:08;;;;;;;2.63;2.38;;;;;;;;;;5071586;28;20399;-81
2022/06/01 01:24:52;;;;;;;2.83;2.60;;;;;;;;;;5071717;28;20881;-81
2022/06/01 01:27:18;;;;;;;2.72;2.53;;;;;;;;;;5065724;28;20727;-81
2022/06/01 01:29:45;;;;;;;3.05;2.60;;;;;;;;;;5060009;28;20913;-81
2022/06/01 01:32:12;;;;;;;2.88;2.67;;;;;;;;;;5071503;28;20753;-81
2022/06/01 01:34:38;;;;;;;2.80;2.60;;;;;;;;;;5072011;28;20380;-81
2022/06/01 01:37:09;;;;;;;2.83;2.42;;;;;;;;;;5071620;28;20391;-81
2022/06/01 01:39:37;;;;;;;3.15;2.78;;;;;;;;;;5044898;28;20426;-81
2022/06/01 01:42:03;;;;;;;2.65;2.45;;;;;;;;;;5052405;28;20383;-81
2022/06/01 01:44:49;;;;;;;2.92;2.72;;;;;;;;;;5063322;28;20387;-81
2022/06/01 01:47:15;;;;;;;2.80;2.60;;;;;;;;;;5073318;28;20398;-81
2022/06/01 01:49:42;;;;;;;2.97;2.53;;;;;;;;;;5074888;28;20391;-81
2022/06/01 01:52:12;;;;;;;3.15;2.40;;;;;;;;;;5075108;28;20391;-81
2022/06/01 01:54:46;;;;;;;2.72;2.53;;;;;;;;;;5074891;28;20388;-81
2022/06/01 01:57:30;;;;;;;2.53;2.33;;;;;;;;;;5074977;28;20535;-81
2022/06/01 02:00:19;;;;;;;3.17;2.88;;;;;;;;;;5074776;28;20415;-81
2022/06/01 02:03:05;;;;;;;2.97;2.65;;;;;;;;;;5061726;28;20384;-81
2022/06/01 02:06:06;;;;;;;2.50;2.30;;;;;;;;;;5074445;28;20407;-81
2022/06/01 02:08:34;;;;;;;2.55;2.35;;;;;;;;;;5074716;28;20379;-81
2022/06/01 02:14:30;;;;;;;2.63;2.43;;;;;;;;;;5068736;28;20455;-81
2022/06/01 02:16:59;;;;;;;2.47;2.28;;;;;;;;;;5074454;28;20714;-81
2022/06/01 02:19:27;;;;;;;2.90;2.70;;;;;;;;;;5074438;28;20768;-81
2022/06/01 02:21:56;;;;;;;2.72;2.53;;;;;;;;;;5074420;28;20801;-81
2022/06/01 02:24:25;;;;;;;3.00;2.53;;;;;;;;;;5074455;28;20375;-81
2022/06/01 02:26:52;;;;;;;3.00;2.80;;;;;;;;;;5064050;28;20874;-81
2022/06/01 02:29:20;;;;;;;2.78;2.58;;;;;;;;;;5067549;28;20509;-81
2022/06/01 02:31:47;;;;;;;2.63;2.43;;;;;;;;;;5074215;28;20417;-81
2022/06/01 02:34:14;;;;;;;2.72;2.53;;;;;;;;;;5052474;28;20745;-81
2022/06/01 02:36:41;;;;;;;2.90;2.70;;;;;;;;;;5064760;28;20396;-81
2022/06/01 02:39:09;;;;;;;3.10;2.80;;;;;;;;;;5068299;28;20401;-81
2022/06/01 02:44:20;;;;;;;2.90;2.70;;;;;;;;;;5073283;28;20375;-81
2022/06/01 02:46:46;;;;;;;3.17;2.90;;;;;;;;;;5053982;28;20416;-81
2022/06/01 02:49:12;;;;;;;2.88;2.67;;;;;;;;;;5068487;28;20445;-81
2022/06/01 02:51:39;;;;;;;2.75;2.55;;;;;;;;;;5072990;28;20881;-81
2022/06/01 02:54:05;;;;;;;2.90;2.70;;;;;;;;;;5073871;28;20462;-81
2022/06/01 02:56:31;;;;;;;3.00;2.50;;;;;;;;;;5073633;28;20391;-81
2022/06/01 02:58:57;;;;;;;2.70;2.50;;;;;;;;;;5073459;28;20764;-81
2022/06/01 03:01:23;;;;;;;3.00;2.70;;;;;;;;;;5073651;28;20454;-81
2022/06/01 03:03:49;;;;;;;2.70;2.50;;;;;;;;;;5073635;28;20497;-81
2022/06/01 03:06:15;;;;;;;2.60;2.33;;;;;;;;;;5073819;28;20458;-81
2022/06/01 03:08:41;;;;;;;2.90;2.70;;;;;;;;;;5073480;28;20387;-81
2022/06/01 03:11:07;;;;;;;2.60;2.40;;;;;;;;;;5073803;28;20376;-81
2022/06/01 03:13:33;;;;;;;2.97;2.35;;;;;;;;;;5073296;28;20380;-81
2022/06/01 03:16:00;;;;;;;2.90;2.70;;;;;;;;;;5073404;28;20982;-81
2022/06/01 03:18:26;;;;;;;2.60;2.33;;;;;;;;;;5073032;28;20907;-81
2022/06/01 03:20:52;;;;;;;2.70;2.50;;;;;;;;;;5069723;28;20389;-81
2022/06/01 03:23:21;;;;;;;2.50;2.30;;;;;;;;;;5053172;28;20929;-81
2022/06/01 03:25:47;;;;;;;2.28;2.17;;;;;;;;;;5070876;28;20379;-81
2022/06/01 03:28:13;;;;;;;2.70;2.50;;;;;;;;;;5055231;28;20396;-81
2022/06/01 03:30:40;;;;;;;2.60;2.42;;;;;;;;;;5073117;28;20391;-81
2022/06/01 03:33:06;;;;;;;2.50;2.30;;;;;;;;;;5073000;28;20867;-81
2022/06/01 03:35:33;;;;;;;3.10;2.90;;;;;;;;;;5052530;28;20430;-81
2022/06/01 03:37:59;;;;;;;2.92;2.70;;;;;;;;;;5043780;28;20387;-81
2022/06/01 03:40:26;;;;;;;3.13;2.83;;;;;;;;;;5051696;28;20738;-81
2022/06/01 03:42:52;;;;;;;5.78;3.00;;;;;;;;;;5060235;28;20411;-81
2022/06/01 03:48:04;;;;;;;2.90;2.70;;;;;;;;;;5057711;28;20379;-80
2022/06/01 03:50:30;;;;;;;2.80;2.60;;;;;;;;;;5058658;28;20799;-81
2022/06/01 03:52:56;;;;;;;2.87;2.67;;;;;;;;;;5069739;28;20458;-81
2022/06/01 03:55:23;;;;;;;2.92;2.72;;;;;;;;;;5057942;28;20864;-81
2022/06/01 03:57:49;;;;;;;3.20;3.00;;;;;;;;;;5070869;28;20432;-81
2022/06/01 04:00:20;;;;;;;3.22;2.92;;;;;;;;;;5070511;28;20434;-81
2022/06/01 04:02:46;;;;;;;3.20;3.00;;;;;;;;;;5070931;28;20372;-80
2022/06/01 04:05:12;;;;;;;3.10;2.90;;;;;;;;;;5070684;28;20390;-81
2022/06/01 04:07:39;;;;;;;3.45;3.10;;;;;;;;;;5070724;28;20464;-81
2022/06/01 04:10:05;;;;;;;3.17;2.83;;;;;;;;;;5071587;28;20476;-81
2022/06/01 04:12:31;;;;;;;3.67;3.20;;;;;;;;;;5072297;28;20402;-82
2022/06/01 04:14:57;;;;;;;3.65;3.38;;;;;;;;;;5072371;28;20402;-81
2022/06/01 04:17:23;;;;;;;3.10;2.90;;;;;;;;;;5054362;28;20869;-82
2022/06/01 04:19:49;;;;;;;3.55;3.25;;;;;;;;;;5062583;28;20405;-81
2022/06/01 04:22:15;;;;;;;3.30;3.00;;;;;;;;;;5054605;28;20432;-81
2022/06/01 04:24:41;;;;;;;3.53;3.30;;;;;;;;;;5072299;28;20741;-80
2022/06/01 04:27:08;;;;;;;3.25;3.05;;;;;;;;;;5072271;28;20372;-81
2022/06/01 04:29:34;;;;;;;3.30;3.10;;;;;;;;;;5072348;28;20392;-80
2022/06/01 04:32:05;;;;;;;3.25;3.05;;;;;;;;;;5072355;28;20478;-80
2022/06/01 04:34:31;;;;;;;3.80;3.50;;;;;;;;;;5058718;28;20403;-80
2022/06/01 04:36:57;;;;;;;3.30;3.10;;;;;;;;;;5047003;28;20385;-81
2022/06/01 04:39:23;;;;;;;3.60;3.30;;;;;;;;;;5055901;28;20404;-82
2022/06/01 04:41:49;;;;;;;3.63;3.33;;;;;;;;;;5049525;28;20418;-79
2022/06/01 04:44:15;;;;;;;4.10;3.80;;;;;;;;;;5051917;28;20412;-80
2022/06/01 04:46:41;;;;;;;3.50;3.30;;;;;;;;;;5052372;28;20738;-81
2022/06/01 04:49:07;;;;;;;3.60;3.30;;;;;;;;;;5058465;28;20393;-82
2022/06/01 04:51:37;;;;;;;3.60;3.30;;;;;;;;;;5058672;28;20474;-79
2022/06/01 04:54:03;;;;;;;3.80;3.50;;;;;;;;;;5072071;28;20391;-81
2022/06/01 04:56:29;;;;;;;3.70;3.50;;;;;;;;;;5071764;28;20749;-80
2022/06/01 04:58:55;;;;;;;3.70;3.47;;;;;;;;;;5059619;28;20403;-80
2022/06/01 05:01:21;;;;;;;3.70;3.40;;;;;;;;;;5053901;28;20753;-80
2022/06/01 05:03:47;;;;;;;3.70;3.50;;;;;;;;;;5071707;28;20463;-79
2022/06/01 05:06:14;;;;;;;3.90;3.60;;;;;;;;;;5071882;28;20410;-79
2022/06/01 05:08:40;;;;;;;3.88;3.58;;;;;;;;;;5071657;28;20474;-81
2022/06/01 05:11:06;;;;;;;3.80;3.60;;;;;;;;;;5071947;28;20423;-81
2022/06/01 05:13:32;;;;;;;4.28;3.92;;;;;;;;;;5071568;28;20421;-81
2022/06/01 05:15:59;;;;;;;4.30;4.00;;;;;;;;;;5074511;28;20418;-81
2022/06/01 05:18:26;;;;;;;3.70;3.50;;;;;;;;;;5070235;28;20414;-81
2022/06/01 05:20:55;;;;;;;4.35;4.05;;;;;;;;;;5036506;28;20375;-81
2022/06/01 05:23:22;;;;;;;4.38;4.00;;;;;;;;;;5034768;28;20403;-81
2022/06/01 05:25:48;;;;;;;4.28;3.92;;;;;;;;;;5047831;28;20427;-81
2022/06/01 05:28:17;;;;;;;4.68;4.38;;;;;;;;;;5038746;28;20371;-81
2022/06/01 05:30:43;;;;;;;4.30;3.90;;;;;;;;;;5049553;28;20873;-81
2022/06/01 05:33:09;;;;;;;4.00;3.70;;;;;;;;;;5075005;28;20391;-81
2022/06/01 05:35:35;;;;;;;4.85;3.95;;;;;;;;;;5055711;28;20470;-81
2022/06/01 05:38:01;;;;;;;4.33;3.93;;;;;;;;;;5057119;28;20380;-81
2022/06/01 05:40:30;;;;;;;4.70;4.18;;;;;;;;;;5044351;28;20379;-81
2022/06/01 05:42:56;;;;;;;3.70;3.40;;;;;;;;;;5054543;28;20372;-82
2022/06/01 05:45:22;;;;;;;4.03;3.72;;;;;;;;;;5073040;28;20375;-82
2022/06/01 05:47:48;;;;;;;4.32;3.92;;;;;;;;;;5073933;28;20895;-82
2022/06/01 05:50:14;;;;;;;4.60;4.20;;;;;;;;;;5074965;28;20372;-82
2022/06/01 05:52:40;;;;;;;4.35;3.97;;;;;;;;;;5053551;28;20394;-83
2022/06/01 05:55:07;;;;;;;4.07;3.77;;;;;;;;;;5074809;28;20479;-82
2022/06/01 05:57:33;;;;;;;4.72;4.00;;;;;;;;;;5074819;28;20873;-82
2022/06/01 06:00:00;;;;;;;4.70;4.30;;;;;;;;;;5061290;28;20406;-83
2022/06/01 06:02:26;;;;;;;4.47;3.97;;;;;;;;;;5067647;28;20381;-82
2022/06/01 06:04:52;;;;;;;4.30;3.90;;;;;;;;;;5061429;28;20384;-83
2022/06/01 06:07:18;;;;;;;4.30;3.90;;;;;;;;;;5064028;28;20818;-83
2022/06/01 06:09:44;;;;;;;4.00;3.70;;;;;;;;;;5057622;28;20387;-84
2022/06/01 06:12:10;;;;;;;3.78;3.40;;;;;;;;;;5068007;28;20414;-85
2022/06/01 06:14:36;;;;;;;4.20;3.90;;;;;;;;;;5070266;28;20898;-84
2022/06/01 06:17:02;;;;;;;3.60;3.40;;;;;;;;;;5055860;28;20378;-82
2022/06/01 06:19:28;;;;;;;3.78;3.47;;;;;;;;;;5074402;28;20873;-83
2022/06/01 06:21:54;;;;;;;4.07;3.70;;;;;;;;;;5057224;28;20379;-83
2022/06/01 06:24:20;;;;;;;4.30;3.90;;;;;;;;;;5056337;28;20745;-83
2022/06/01 06:26:46;;;;;;;4.27;3.87;;;;;;;;;;5072209;28;20794;-83
2022/06/01 06:29:13;;;;;;;3.85;3.55;;;;;;;;;;5074462;28;20380;-83
2022/06/01 06:31:40;;;;;;;4.10;3.80;;;;;;;;;;5074168;28;20514;-83
2022/06/01 06:34:06;;;;;;;3.50;3.30;;;;;;;;;;5074109;28;20390;-84
2022/06/01 06:36:32;;;;;;;3.90;3.60;;;;;;;;;;5055773;28;20378;-84
2022/06/01 06:38:58;;;;;;;4.30;3.90;;;;;;;;;;5037404;28;20407;-83
2022/06/01 06:41:25;;;;;;;3.60;3.40;;;;;;;;;;5028043;28;20395;-83
2022/06/01 06:43:52;;;;;;;3.75;3.45;;;;;;;;;;5034819;28;20823;-83
2022/06/01 06:46:19;;;;;;;3.80;3.50;;;;;;;;;;5044094;28;20717;-83
2022/06/01 06:48:48;;;;;;;4.03;3.63;;;;;;;;;;5073918;28;20384;-83
2022/06/01 06:51:14;;;;;;;3.83;3.25;;;;;;;;;;5058488;28;20430;-83
2022/06/01 06:53:40;;;;;;;3.38;3.15;;;;;;;;;;5074135;28;20379;-83
2022/06/01 06:56:06;;;;;;;3.42;3.10;;;;;;;;;;5070039;28;20383;-84
2022/06/01 06:58:32;;;;;;;3.53;3.22;;;;;;;;;;5057348;28;20443;-83
2022/06/01 07:00:58;;;;;;;3.75;3.40;;;;;;;;;;5052287;28;20448;-83
2022/06/01 07:03:24;;;;;;;3.57;3.27;;;;;;;;;;5061524;28;20868;-83
2022/06/01 07:06:09;;;;;;;3.65;3.22;;;;;;;;;;5040832;28;20375;-84
2022/06/01 07:08:35;;;;;;;3.60;3.30;;;;;;;;;;5055966;28;20501;-84
2022/06/01 07:11:01;;;;;;;3.40;3.20;;;;;;;;;;5040918;28;20376;-84
2022/06/01 07:13:28;;;;;;;3.63;3.33;;;;;;;;;;5032874;28;20410;-83
2022/06/01 07:16:13;;;;;;;3.47;3.17;;;;;;;;;;5033153;28;20378;-84
2022/06/01 07:18:40;;;;;;;3.40;3.10;;;;;;;;;;5032554;28;20484;-83
2022/06/01 07:21:06;;;;;;;2.95;2.75;;;;;;;;;;5038930;28;20725;-84
2022/06/01 07:23:32;;;;;;;2.90;2.70;;;;;;;;;;5059186;28;20925;-84
2022/06/01 07:25:58;;;;;;;3.58;3.20;;;;;;;;;;5057221;28;20402;-85
2022/06/01 07:28:24;;;;;;;3.15;2.88;;;;;;;;;;5054495;28;20872;-85
2022/06/01 07:30:56;;;;;;;3.10;2.80;;;;;;;;;;5045861;28;20752;-85
2022/06/01 07:33:22;;;;;;;3.10;2.80;;;;;;;;;;5073091;28;20856;-87
2022/06/01 07:35:48;;;;;;;3.70;2.80;;;;;;;;;;5040347;28;20480;-85
2022/06/01 07:43:43;;;;;;;3.53;3.03;;;;;;;;;;5056126;28;20876;-85
2022/06/01 07:46:09;;;;;;;3.30;2.90;;;;;;;;;;5053139;28;20389;-88
2022/06/01 07:48:35;;;;;;;4.47;2.80;;;;;;;;;;5063357;28;20425;-85
2022/06/01 07:51:01;;;;;;;3.63;3.03;;;;;;;;;;5065877;28;20381;-84
2022/06/01 07:53:27;;;;;;;4.23;2.73;;;;;;;;;;5059876;28;20392;-84
2022/06/01 07:55:53;;;;;;;3.63;2.42;;;;;;;;;;5072679;28;20384;-85
2022/06/01 07:58:19;;;;;;;3.63;3.30;;;;;;;;;;5071360;28;20383;-85
2022/06/01 08:00:46;;;;;;;4.53;3.40;;;;;;;;;;5054478;28;20911;-85
2022/06/01 08:03:13;;;;;;;3.05;2.78;;;;;;;;;;5072507;28;20379;-85
2022/06/01 08:05:39;;;;;;;3.00;2.65;;;;;;;;;;5054533;28;20430;-85
2022/06/01 08:08:06;;;;;;;3.83;2.67;;;;;;;;;;5072464;28;20402;-85
2022/06/01 08:10:32;;;;;;;3.10;2.60;;;;;;;;;;5072351;28;20837;-85
2022/06/01 08:13:07;;;;;;;3.70;2.60;;;;;;;;;;5054656;28;20433;-85
2022/06/01 08:15:38;;;;;;;3.72;3.00;;;;;;;;;;5072727;28;20430;-85
2022/06/01 08:18:04;;;;;;;3.00;2.70;;;;;;;;;;5072625;28;20384;-85
2022/06/01 08:20:31;;;;;;;2.75;2.38;;;;;;;;;;5072252;28;20375;-86
2022/06/01 08:22:57;;;;;;;3.92;3.05;;;;;;;;;;5046445;28;20495;-85
2022/06/01 08:25:24;;;;;;;2.80;2.53;;;;;;;;;;5052250;28;20889;-85
2022/06/01 08:27:50;;;;;;;2.70;2.20;;;;;;;;;;5058383;28;20470;-86
2022/06/01 08:30:17;;;;;;;2.70;2.50;;;;;;;;;;5054477;28;20936;-85
2022/06/01 08:32:43;;;;;;;2.88;2.10;;;;;;;;;;5072048;28;20391;-86
2022/06/01 08:35:10;;;;;;;2.55;2.20;;;;;;;;;;5072147;28;20849;-84
2022/06/01 08:37:36;;;;;;;2.90;2.30;;;;;;;;;;5054370;28;20904;-85
2022/06/01 08:40:04;;;;;;;3.53;2.50;;;;;;;;;;5067197;28;20882;-85
2022/06/01 08:42:30;;;;;;;2.50;2.30;;;;;;;;;;5053056;28;20423;-85
2022/06/01 08:44:59;;;;;;;4.72;2.40;;;;;;;;;;5072076;28;20387;-85
2022/06/01 08:47:29;;;;;;;2.20;2.00;;;;;;;;;;5054425;28;20471;-84
2022/06/01 08:50:00;;;;;;;2.30;2.10;;;;;;;;;;5055593;28;20387;-85
2022/06/01 08:52:28;;;;;;;2.60;2.27;;;;;;;;;;5076184;28;20398;-85
2022/06/01 08:54:54;;;;;;;3.35;2.00;;;;;;;;;;5076035;28;20384;-85
2022/06/01 08:57:25;;;;;;;2.30;2.10;;;;;;;;;;5058064;28;20395;-85
2022/06/01 08:59:54;;;;;;;2.90;2.00;;;;;;;;;;5075670;28;20496;-86
2022/06/01 09:02:34;;;;;;;3.90;2.28;;;;;;;;;;5075919;28;20376;-86
2022/06/01 09:05:08;;;;;;;2.80;2.10;;;;;;;;;;5076033;28;20372;-86
2022/06/01 09:07:37;;;;;;;3.25;2.20;;;;;;;;;;5058268;28;20375;-85
2022/06/01 09:10:20;;;;;;;2.72;2.17;;;;;;;;;;5075822;28;20449;-86
2022/06/01 09:12:48;;;;;;;2.43;2.10;;;;;;;;;;5057752;28;20380;-86
2022/06/01 09:15:23;;;;;;;2.33;2.00;;;;;;;;;;5075086;28;20384;-85
2022/06/01 09:17:49;;;;;;;6.78;2.30;;;;;;;;;;5046056;28;20885;-85
2022/06/01 09:23:02;;;;;;;2.95;2.15;;;;;;;;;;5075915;28;20375;-86
2022/06/01 09:25:34;;;;;;;6.25;2.25;;;;;;;;;;5060771;28;20416;-85
2022/06/01 09:28:03;;;;;;;2.95;2.33;;;;;;;;;;5063600;28;20433;-85
2022/06/01 09:30:34;;;;;;;2.60;2.20;;;;;;;;;;5075384;28;20391;-86
2022/06/01 09:33:11;;;;;;;2.17;1.98;;;;;;;;;;5075641;28;20375;-86
2022/06/01 09:35:38;;;;;;;2.30;2.00;;;;;;;;;;5075270;28;20387;-87
2022/06/01 09:38:11;;;;;;;2.90;2.22;;;;;;;;;;5075237;28;20418;-87
2022/06/01 09:40:37;;;;;;;2.78;1.85;;;;;;;;;;5075422;28;20433;-87
2022/06/01 09:43:03;;;;;;;3.58;1.75;;;;;;;;;;5058022;28;20388;-86
2022/06/01 09:45:46;;;;;;;1.73;1.60;;;;;;;;;;5075309;28;20445;-87
2022/06/01 09:48:21;;;;;;;3.60;1.40;;;;;;;;;;5075311;28;20848;-86
2022/06/01 09:50:57;;;;;;;2.65;1.38;;;;;;;;;;5075173;28;20368;-88
2022/06/01 09:53:23;;;;;;;1.60;1.38;;;;;;;;;;5063585;28;20367;-87
2022/06/01 09:55:56;;;;;;;16.17;2.15;;;;;;;;;;5048026;28;20377;-87
2022/06/01 10:07:29;;;;;;;1.30;1.10;;;;;;;;;;5075069;28;20398;-86
2022/06/01 10:09:56;;;;;;;2.92;1.23;;;;;;;;;;5056677;28;20437;-86
2022/06/01 10:12:25;;;;;;;3.22;1.33;;;;;;;;;;5074568;28;20384;-86
2022/06/01 10:14:52;;;;;;;1.95;1.40;;;;;;;;;;5074692;28;20391;-86
2022/06/01 10:17:34;;;;;;;2.65;1.38;;;;;;;;;;5074599;28;20891;-87
2022/06/01 10:20:20;;;;;;;1.20;1.10;;;;;;;;;;5074476;28;20430;-88
2022/06/01 10:22:46;;;;;;;2.73;1.40;;;;;;;;;;5074630;28;20463;-86
2022/06/01 10:25:12;;;;;;;1.77;1.43;;;;;;;;;;5074529;28;20422;-85
2022/06/01 10:27:50;;;;;;;2.67;1.13;;;;;;;;;;5056456;28;20384;-86
2022/06/01 10:30:31;;;;;;;2.95;1.30;;;;;;;;;;5073770;28;20391;-88
2022/06/01 10:33:03;;;;;;;2.97;1.10;;;;;;;;;;5035176;28;20384;-86
2022/06/01 10:35:32;;;;;;;3.70;1.40;;;;;;;;;;5065235;28;20388;-87
2022/06/01 10:38:08;;;;;;;1.90;1.20;;;;;;;;;;5043476;28;20388;-87
2022/06/01 10:40:45;;;;;;;1.83;1.25;;;;;;;;;;5074503;28;20474;-88
2022/06/01 10:43:30;;;;;;;2.30;1.30;;;;;;;;;;5039356;28;20397;-87
2022/06/01 10:46:00;;;;;;;2.97;1.43;;;;;;;;;;5055022;28;20392;-87
2022/06/01 10:48:31;;;;;;;3.00;1.27;;;;;;;;;;5062427;28;20915;-87
2022/06/01 10:50:57;;;;;;;3.13;1.40;;;;;;;;;;5073896;28;20411;-87
2022/06/01 10:53:41;;;;;;;1.93;1.33;;;;;;;;;;5073940;28;20376;-87
2022/06/01 10:56:07;;;;;;;2.70;1.45;;;;;;;;;;5073927;28;20372;-86
2022/06/01 10:58:35;;;;;;;1.45;1.25;;;;;;;;;;5055943;28;20407;-87
2022/06/01 11:01:01;;;;;;;4.07;1.40;;;;;;;;;;5073941;28;20395;-87
2022/06/01 11:03:34;;;;;;;1.40;1.30;;;;;;;;;;5073594;28;20380;-87
2022/06/01 11:06:03;;;;;;;1.77;1.13;;;;;;;;;;5073789;28;20474;-87
2022/06/01 11:08:34;;;;;;;3.60;1.58;;;;;;;;;;5073551;28;20378;-86
2022/06/01 11:11:03;;;;;;;4.27;1.23;;;;;;;;;;5073827;28;20441;-87
2022/06/01 11:13:29;;;;;;;2.53;1.07;;;;;;;;;;5058136;28;20466;-87
2022/06/01 11:16:08;;;;;;;2.33;1.30;;;;;;;;;;5073795;28;20429;-87
2022/06/01 11:18:52;;;;;;;3.45;1.35;;;;;;;;;;5073363;28;20408;-87
2022/06/01 11:21:24;;;;;;;3.90;1.53;;;;;;;;;;5055338;28;20376;-86
2022/06/01 11:24:08;;;;;;;1.88;1.42;;;;;;;;;;5073284;28;20375;-86
2022/06/01 11:26:55;;;;;;;4.10;1.57;;;;;;;;;;5073325;28;20441;-86
2022/06/01 11:29:30;;;;;;;2.17;1.73;;;;;;;;;;5061096;28;20377;-86
2022/06/01 11:31:59;;;;;;;3.63;1.33;;;;;;;;;;5047658;28;20396;-86
2022/06/01 11:34:27;;;;;;;1.65;1.30;;;;;;;;;;5073350;28;20932;-87
2022/06/01 11:36:59;;;;;;;2.08;1.63;;;;;;;;;;5073173;28;20426;-87
2022/06/01 11:39:31;;;;;;;7.05;1.60;;;;;;;;;;5072962;28;20395;-87
2022/06/01 11:42:01;;;;;;;2.50;1.40;;;;;;;;;;5062764;28;20387;-87
2022/06/01 11:44:33;;;;;;;3.55;1.60;;;;;;;;;;5057451;28;20441;-86
2022/06/01 11:47:01;;;;;;;4.22;1.65;;;;;;;;;;5072905;28;20737;-87
2022/06/01 11:49:27;;;;;;;2.72;1.50;;;;;;;;;;5072784;28;20405;-86
2022/06/01 11:51:55;;;;;;;2.50;1.40;;;;;;;;;;5072710;28;20392;-86
2022/06/01 11:54:30;;;;;;;2.70;1.40;;;;;;;;;;5072827;28;20379;-86
2022/06/01 11:57:17;;;;;;;2.77;1.43;;;;;;;;;;5039966;28;20387;-87
2022/06/01 11:59:47;;;;;;;2.13;1.45;;;;;;;;;;5072517;28;20419;-85
2022/06/01 12:02:50;;;;;;;3.72;1.60;;;;;;;;;;5072525;28;20710;-86
2022/06/01 12:05:30;;;;;;;2.75;1.38;;;;;;;;;;5004014;28;20388;-86
2022/06/01 12:08:05;;;;;;;3.20;1.50;;;;;;;;;;5072694;28;20379;-86
2022/06/01 12:10:32;;;;;;;2.10;1.40;;;;;;;;;;5072473;28;20384;-86
2022/06/01 12:13:03;;;;;;;1.83;1.48;;;;;;;;;;5071279;28;20379;-87
2022/06/01 12:15:38;;;;;;;2.47;1.30;;;;;;;;;;5051909;28;20423;-86
2022/06/01 12:18:18;;;;;;;2.35;1.30;;;;;;;;;;5076867;28;20383;-86
2022/06/01 12:20:47;;;;;;;1.88;1.38;;;;;;;;;;5054423;28;20425;-86
2022/06/01 12:28:51;;;;;;;2.00;1.45;;;;;;;;;;5072463;28;20363;-86
2022/06/01 12:31:19;;;;;;;2.00;1.50;;;;;;;;;;5071850;28;20448;-86
2022/06/01 12:34:04;;;;;;;1.35;1.23;;;;;;;;;;5051282;28;20377;-87
2022/06/01 12:36:39;;;;;;;2.28;1.50;;;;;;;;;;5047710;28;20887;-85
2022/06/01 12:39:06;;;;;;;3.33;1.25;;;;;;;;;;5060488;28;20409;-86
2022/06/01 12:41:35;;;;;;;3.00;1.43;;;;;;;;;;5055891;28;20383;-86
2022/06/01 12:44:04;;;;;;;3.03;1.58;;;;;;;;;;5059468;28;20494;-86
2022/06/01 12:46:38;;;;;;;3.42;1.35;;;;;;;;;;5072190;28;20383;-86
2022/06/01 12:49:41;;;;;;;1.55;1.38;;;;;;;;;;5072157;28;20372;-86
2022/06/01 12:52:09;;;;;;;1.80;1.58;;;;;;;;;;4971328;28;20420;-85
2022/06/01 12:54:39;;;;;;;2.08;1.40;;;;;;;;;;5054255;28;20384;-86
2022/06/01 12:57:06;;;;;;;2.20;1.60;;;;;;;;;;5053946;28;20843;-86
2022/06/01 12:59:33;;;;;;;2.33;1.40;;;;;;;;;;5070933;28;20451;-86
2022/06/01 13:02:00;;;;;;;1.92;1.20;;;;;;;;;;5071704;28;20376;-87
2022/06/01 13:04:28;;;;;;;2.58;1.10;;;;;;;;;;5071920;28;20402;-86
2022/06/01 13:06:54;;;;;;;0.80;0.70;;;;;;;;;;5071990;28;20836;-86
2022/06/01 13:09:28;;;;;;;0.75;0.70;;;;;;;;;;5072078;28;20401;-88
2022/06/01 13:12:15;;;;;;;2.75;0.88;;;;;;;;;;5071792;28;20436;-86
2022/06/01 13:14:41;;;;;;;0.82;0.77;;;;;;;;;;5072093;28;20380;-86
2022/06/01 13:17:11;;;;;;;1.63;0.63;;;;;;;;;;5071905;28;20380;-86
2022/06/01 13:19:39;;;;;;;1.50;0.70;;;;;;;;;;5071690;28;20406;-86
2022/06/01 13:22:20;;;;;;;1.50;1.00;;;;;;;;;;5061278;28;20427;-86
2022/06/01 13:24:50;;;;;;;2.33;1.10;;;;;;;;;;5061211;28;20384;-84
2022/06/01 13:27:16;;;;;;;1.67;1.00;;;;;;;;;;5071649;28;20797;-85
2022/06/01 13:29:44;;;;;;;1.80;1.00;;;;;;;;;;5071701;28;20391;-85
2022/06/01 13:32:11;;;;;;;1.98;1.30;;;;;;;;;;5071562;28;20376;-86
2022/06/01 13:34:40;;;;;;;3.03;1.75;;;;;;;;;;5071845;28;20382;-86
2022/06/01 13:37:16;;;;;;;2.95;1.58;;;;;;;;;;5074585;28;20391;-86
2022/06/01 13:39:48;;;;;;;2.20;1.50;;;;;;;;;;5057230;28;20909;-85
2022/06/01 13:42:22;;;;;;;4.65;2.55;;;;;;;;;;5060407;28;20375;-85
2022/06/01 13:44:50;;;;;;;2.60;1.80;;;;;;;;;;5047727;28;20402;-85
2022/06/01 13:47:24;;;;;;;3.05;2.20;;;;;;;;;;5075230;28;20379;-85
2022/06/01 13:49:51;;;;;;;2.45;1.90;;;;;;;;;;5075045;28;20733;-86
2022/06/01 13:52:18;;;;;;;1.40;1.30;;;;;;;;;;5074966;28;20375;-85
2022/06/01 13:54:48;;;;;;;3.20;1.52;;;;;;;;;;5057039;28;20395;-86
2022/06/01 13:57:26;;;;;;;3.38;1.70;;;;;;;;;;5068511;28;20727;-86
2022/06/01 14:00:03;;;;;;;2.22;1.60;;;;;;;;;;5056750;28;20823;-86
2022/06/01 14:02:35;;;;;;;2.30;1.73;;;;;;;;;;5075137;28;20398;-86
2022/06/01 14:05:05;;;;;;;2.33;1.52;;;;;;;;;;5074798;28;20376;-85
2022/06/01 14:08:04;;;;;;;1.75;1.60;;;;;;;;;;5057193;28;20419;-85
2022/06/01 14:10:35;;;;;;;3.83;2.20;;;;;;;;;;5020088;28;20814;-85
2022/06/01 14:13:01;;;;;;;2.10;1.90;;;;;;;;;;5074607;28;20390;-85
2022/06/01 14:15:27;;;;;;;3.67;2.53;;;;;;;;;;5056638;28;20376;-85
2022/06/01 14:17:53;;;;;;;5.18;3.00;;;;;;;;;;5074585;28;20367;-85
2022/06/01 14:20:19;;;;;;;4.10;2.30;;;;;;;;;;5056396;28;20529;-85
2022/06/01 14:22:45;;;;;;;2.60;2.10;;;;;;;;;;5074621;28;20384;-86
2022/06/01 14:30:40;;;;;;;2.83;2.00;;;;;;;;;;5066005;28;20391;-85
2022/06/01 14:33:10;;;;;;;2.67;2.30;;;;;;;;;;5056235;28;20380;-86
2022/06/01 14:35:36;;;;;;;2.38;2.17;;;;;;;;;;5056556;28;20765;-86
2022/06/01 14:38:33;;;;;;;4.95;2.20;;;;;;;;;;5065022;28;20431;-86
2022/06/01 14:41:01;;;;;;;3.35;2.35;;;;;;;;;;5070919;28;20856;-87
2022/06/01 14:43:33;;;;;;;5.25;2.65;;;;;;;;;;5057041;28;20390;-88
2022/06/01 14:45:59;;;;;;;2.72;2.10;;;;;;;;;;5074084;28;20436;-87
2022/06/01 14:48:25;;;;;;;2.08;1.88;;;;;;;;;;5054035;28;20389;-87
2022/06/01 14:50:51;;;;;;;2.80;2.20;;;;;;;;;;5067927;28;20391;-86
2022/06/01 14:53:23;;;;;;;2.50;1.90;;;;;;;;;;5055982;28;20368;-85
2022/06/01 14:55:49;;;;;;;3.63;1.95;;;;;;;;;;5073928;28;20860;-86
2022/06/01 14:58:15;;;;;;;3.30;2.15;;;;;;;;;;5073803;28;20463;-86
2022/06/01 15:00:41;;;;;;;2.53;2.15;;;;;;;;;;5073550;28;20430;-86
2022/06/01 15:03:09;;;;;;;2.92;1.90;;;;;;;;;;5056019;28;20392;-86
2022/06/01 15:05:35;;;;;;;2.70;2.40;;;;;;;;;;5055606;28;20861;-86
2022/06/01 15:08:01;;;;;;;3.40;2.35;;;;;;;;;;5073710;28;20880;-85
2022/06/01 15:10:27;;;;;;;4.32;1.90;;;;;;;;;;5073491;28;20384;-85
2022/06/01 15:12:56;;;;;;;3.35;2.25;;;;;;;;;;5073558;28;20387;-86
2022/06/01 15:15:25;;;;;;;2.42;2.20;;;;;;;;;;5072714;28;20416;-86
2022/06/01 15:17:51;;;;;;;2.80;2.05;;;;;;;;;;5073497;28;20383;-85
2022/06/01 15:20:17;;;;;;;2.30;2.10;;;;;;;;;;5073210;28;20443;-85
2022/06/01 15:22:43;;;;;;;2.65;1.80;;;;;;;;;;5055367;28;20745;-85
2022/06/01 15:25:09;;;;;;;3.50;2.15;;;;;;;;;;5073445;28;20403;-87
2022/06/01 15:27:37;;;;;;;2.53;2.00;;;;;;;;;;5068352;28;20374;-86
2022/06/01 15:41:04;;;;;;;2.43;2.00;;;;;;;;;;5073005;28;20765;-86
2022/06/01 15:43:30;;;;;;;2.55;1.95;;;;;;;;;;5038326;28;20380;-85